• Join FlightAware (Why Join?)
  • Login
  • US Flag 
01:37PM EDT


 

Airport Tracker/Info


-or-


 

Live Flight TrackerFlight Track Log ✈ JBU51 ✈ 01-May-2013 ✈ KBTV - KJFK

Flight Track Log - Related Links

Times and Time Zones

All times are in EDT time to prevent confusion due to time zone crossing. See the JBU51 flight status page for this flight to view local times or setup timezone preferences in your user account.

Time Position Orientation Groundspeed Altitude Reporting Facility
EDT Latitude Longitude Course Direction KTS MPH feet Rate Location/Type
11:47AM 44.3883 -73.1664 196° South 206 237 4,400  Level Boston Center
11:48AM 44.3275 -73.2264 215° Southwest 250 288 7,700 3,240 Climbing Boston Center
11:49AM 44.0552 -73.3038 194° South  Level FlightAware Approximate
11:49AM 44.2397 -73.2631 197° South 285 328 10,900  Level Boston Center
11:50AM 43.9720 -73.3316 194° South  Level FlightAware Approximate
11:50AM 44.1478 -73.2964 195° South 328 377 13,400  Level Boston Center
11:51AM 43.8891 -73.3611 196° South  Level FlightAware Approximate
11:51AM 44.0497 -73.3183 189° South 353 406 15,900  Level Boston Center
11:52AM 43.8069 -73.3941 196° South  Level FlightAware Approximate
11:52AM 43.9453 -73.3425 189° South 381 438 17,800  Level Boston Center
11:53AM 43.8367 -73.3669 189° South 391 450 19,900 2,100 Climbing Boston Center
11:54AM 43.7197 -73.3908 188° South 408 470 22,000 1,860 Climbing Boston Center
11:55AM 43.6133 -73.4150 189° South 423 487 23,700 1,740 Climbing Boston Center
11:56AM 43.5064 -73.4906 207° Southwest 430 495 25,500 1,500 Climbing Boston Center
11:57AM 43.3953 -73.5717 208° Southwest 442 509 26,800 1,200 Climbing Boston Center
11:58AM 43.2739 -73.6206 196° South 449 517 28,000 600 Climbing Boston Center
11:59AM 43.1256 -73.6406 186° South 468 539 28,000  Level Boston Center
12:00PM 42.9983 -73.6578 186° South 468 539 28,000  Level Boston Center
12:01PM 42.8667 -73.6753 186° South 473 544 28,000  Level Boston Center
12:02PM 42.7394 -73.6925 186° South 467 537 28,000  Level Boston Center
12:03PM 42.6100 -73.7125 186° South 467 537 28,000  Level Boston Center
12:04PM 42.4911 -73.7239 184° South 467 537 28,000  Level Boston Center
12:05PM 42.3617 -73.7411 186° South 472 543 28,000  Level Boston Center
12:06PM 42.2344 -73.7553 185° South 472 543 28,000  Level Boston Center
12:07PM 42.1050 -73.7719 185° South 472 543 28,000  Level Boston Center
12:08PM 41.9775 -73.7889 186° South 466 536 28,000  Level Boston Center
12:09PM 41.8525 -73.8031 185° South 461 531 28,000 -960 Level Boston Center
12:10PM 41.7236 -73.7781 172° South 455 524 26,100 -2,100 Descending Boston Center
12:12PM 41.5086 -73.8572 195° South 370 426 21,200 -1,920 Descending New York Center
12:13PM 41.4408 -73.9758 233° Southwest 375 432 20,000 -660 Descending New York Center
12:14PM 41.3672 -74.0828 227° Southwest 384 442 20,000  Level New York Center
12:15PM 41.2661 -74.1247 197° South 384 442 20,000  Level New York Center
12:16PM 41.1575 -74.1275 181° South 375 432 20,000 -360 Level New York Center
12:17PM 41.0492 -74.1306 181° South 388 447 19,300 -720 Descending New York Center
12:17PM 40.9833 -74.1333 182° South 354 407 19,000 -240 Descending New York TRACON
12:18PM 40.9000 -74.1000 163° South 344 396 19,000 -660 Level New York TRACON
12:19PM 40.8333 -74.0000 131° Southeast 329 379 17,700 -1,320 Descending New York TRACON
12:20PM 40.7833 -73.9000 123° Southeast 318 366 16,300 -1,680 Descending New York TRACON
12:21PM 40.7333 -73.8167 128° Southeast 304 350 14,400 -1,680 Descending New York TRACON
12:22PM 40.6833 -73.7333 128° Southeast 345 397 13,000 -1,620 Descending New York TRACON
12:24PM 40.5333 -73.6667 161° South 284 327 9,600 -1,740 Descending New York TRACON
12:25PM 40.4500 -73.7000 197° South 285 328 7,800 -1,800 Descending New York TRACON
12:26PM 40.3833 -73.7333 201° Southwest 281 323 6,100 -1,680 Descending New York TRACON
12:27PM 40.3333 -73.8000 225° Southwest 291 335 4,500 -1,500 Descending New York TRACON
12:28PM 40.3667 -73.8833 298° West 273 314 3,100 -1,020 Descending New York TRACON
12:29PM 40.3864 -73.9156 309° West 204 235 3,000 -120 Descending New York Center
12:29PM 40.4167 -73.9500 319° Northwest 239 275 3,000  Level New York TRACON
12:30PM 40.4667 -73.9500 360° North 184 212 3,000  Level New York TRACON
12:31PM 40.5167 -73.9667 346° North 183 211 3,000  Level New York TRACON
12:32PM 40.5667 -73.9333 27° Northeast 184 212 3,000 -300 Level New York TRACON
12:33PM 40.6000 -73.9000 37° Northeast 177 204 2,500 -720 Descending New York TRACON
12:34PM 40.6500 -73.8667 27° Northeast 179 206 1,600 -900 Descending New York TRACON
12:35PM 40.6667 -73.8333 57° Northeast 135 155 900 -780 Descending New York TRACON